Time;durP1;ratioP1;P1;durP2;ratioP2;P2;SDS_P1;SDS_P2;PMS_P1;PMS_P2;Temp;Humidity;BMP_temperature;BMP_pressure;BME280_temperature;BME280_humidity;BME280_pressure;Samples;Min_cycle;Max_cycle;Signal;HPM_P1;HPM_P2
2021/03/07 00:01:50;;;;;;;;;;;11.50;60.40;;;;;;4951694;28;75180;-70
2021/03/07 00:04:16;;;;;;;;;;;11.50;60.50;;;;;;4950457;28;76087;-69
2021/03/07 00:06:41;;;;;;;;;;;11.50;60.40;;;;;;4950239;28;76376;-70
2021/03/07 00:09:07;;;;;;;;;;;11.50;60.50;;;;;;4950000;28;77088;-69
2021/03/07 00:11:32;;;;;;;;;;;11.40;60.60;;;;;;4951629;28;75176;-68
2021/03/07 00:13:58;;;;;;;;;;;11.40;60.90;;;;;;4951901;28;74364;-70
2021/03/07 00:16:24;;;;;;;;;;;11.40;60.90;;;;;;4951622;28;74588;-71
2021/03/07 00:18:49;;;;;;;;;;;11.40;61.10;;;;;;4951635;28;75106;-69
2021/03/07 00:21:17;;;;;;;;;;;11.30;61.40;;;;;;4951245;28;76736;-71
2021/03/07 00:23:43;;;;;;;;;;;11.30;61.40;;;;;;4951997;28;75176;-71
2021/03/07 00:26:09;;;;;;;;;;;11.20;61.50;;;;;;4949860;28;78271;-71
2021/03/07 00:28:34;;;;;;;;;;;11.30;61.50;;;;;;4951312;28;75573;-69
2021/03/07 00:31:00;;;;;;;;;;;11.20;61.60;;;;;;4951247;28;76469;-70
2021/03/07 00:33:25;;;;;;;;;;;11.20;61.60;;;;;;4951442;28;75293;-68
2021/03/07 00:35:51;;;;;;;;;;;11.20;61.60;;;;;;4951237;28;75131;-70
2021/03/07 00:38:17;;;;;;;;;;;11.10;61.60;;;;;;4951209;28;75091;-70
2021/03/07 00:40:42;;;;;;;;;;;11.10;61.60;;;;;;4951129;28;75026;-70
2021/03/07 00:43:08;;;;;;;;;;;11.10;61.70;;;;;;4950173;28;76574;-68
2021/03/07 00:45:34;;;;;;;;;;;11.10;61.70;;;;;;4951017;28;76464;-69
2021/03/07 00:48:00;;;;;;;;;;;11.10;61.70;;;;;;4950923;28;76143;-67
2021/03/07 00:50:26;;;;;;;;;;;11.10;61.70;;;;;;4951057;28;74438;-67
2021/03/07 00:52:52;;;;;;;;;;;11.00;61.60;;;;;;4950531;28;76191;-69
2021/03/07 00:55:18;;;;;;;;;;;11.00;61.70;;;;;;4950695;28;74622;-70
2021/03/07 00:57:43;;;;;;;;;;;11.00;61.70;;;;;;4951142;28;75050;-69
2021/03/07 01:00:10;;;;;;;;;;;11.00;61.80;;;;;;4950849;28;75257;-70
2021/03/07 01:02:36;;;;;;;;;;;11.00;61.80;;;;;;4949557;28;77459;-69
2021/03/07 01:05:02;;;;;;;;;;;10.90;61.80;;;;;;4950985;28;75117;-70
2021/03/07 01:07:27;;;;;;;;;;;11.00;61.90;;;;;;4951175;28;75140;-70
2021/03/07 01:09:53;;;;;;;;;;;10.90;62.00;;;;;;4948840;28;76612;-69
2021/03/07 01:12:18;;;;;;;;;;;10.90;62.00;;;;;;4949339;28;77136;-70
2021/03/07 01:14:44;;;;;;;;;;;10.90;62.30;;;;;;4951266;28;75083;-68
2021/03/07 01:17:09;;;;;;;;;;;10.90;62.20;;;;;;4950614;28;75107;-70
2021/03/07 01:19:35;;;;;;;;;;;10.90;62.20;;;;;;4949471;28;77405;-69
2021/03/07 01:22:01;;;;;;;;;;;10.90;62.20;;;;;;4950845;28;75126;-67
2021/03/07 01:24:26;;;;;;;;;;;10.90;62.30;;;;;;4949079;28;77444;-70
2021/03/07 01:26:52;;;;;;;;;;;10.80;62.40;;;;;;4950891;28;75153;-70
2021/03/07 01:29:18;;;;;;;;;;;10.80;62.80;;;;;;4950768;28;75189;-69
2021/03/07 01:31:43;;;;;;;;;;;10.70;62.60;;;;;;4950689;28;74942;-70
2021/03/07 01:34:09;;;;;;;;;;;10.70;62.70;;;;;;4950990;28;74445;-68
2021/03/07 01:36:34;;;;;;;;;;;10.70;62.80;;;;;;4951177;28;74690;-70
2021/03/07 01:39:00;;;;;;;;;;;10.70;62.80;;;;;;4950526;28;75750;-70
2021/03/07 01:41:26;;;;;;;;;;;10.70;62.90;;;;;;4950383;28;75047;-69
2021/03/07 01:43:52;;;;;;;;;;;10.70;62.90;;;;;;4949409;28;77020;-67
2021/03/07 01:46:17;;;;;;;;;;;10.80;63.00;;;;;;4949299;28;75641;-69
2021/03/07 01:48:43;;;;;;;;;;;10.80;62.80;;;;;;4948788;28;74481;-69
2021/03/07 01:51:09;;;;;;;;;;;10.90;62.60;;;;;;4950687;28;74431;-69
2021/03/07 01:53:34;;;;;;;;;;;11.00;62.40;;;;;;4948544;28;76110;-69
2021/03/07 01:56:01;;;;;;;;;;;11.10;62.20;;;;;;4950709;28;74326;-70
2021/03/07 01:58:28;;;;;;;;;;;11.10;61.90;;;;;;4950133;28;75264;-69
2021/03/07 02:00:54;;;;;;;;;;;11.20;61.70;;;;;;4950435;28;74685;-70
2021/03/07 02:03:20;;;;;;;;;;;11.20;61.50;;;;;;4950205;28;75025;-66
2021/03/07 02:05:47;;;;;;;;;;;11.30;61.60;;;;;;4948790;28;77788;-70
2021/03/07 02:08:13;;;;;;;;;;;11.40;61.50;;;;;;4950231;28;75146;-69
2021/03/07 02:10:40;;;;;;;;;;;11.40;61.30;;;;;;4950377;28;74883;-68
2021/03/07 02:13:15;;;;;;;;;;;11.50;61.00;;;;;;4950177;28;74373;-70
2021/03/07 02:15:42;;;;;;;;;;;11.50;61.00;;;;;;4948851;28;74679;-69
2021/03/07 02:18:09;;;;;;;;;;;11.50;60.70;;;;;;4949984;28;74936;-67
2021/03/07 02:20:35;;;;;;;;;;;11.50;60.70;;;;;;4949336;28;75688;-67
2021/03/07 02:23:06;;;;;;;;;;;11.50;60.50;;;;;;4952363;28;75157;-67
2021/03/07 02:25:32;;;;;;;;;;;11.60;60.50;;;;;;4951461;28;77055;-65
2021/03/07 02:27:58;;;;;;;;;;;11.60;60.30;;;;;;4951822;28;77936;-67
2021/03/07 02:30:24;;;;;;;;;;;11.60;60.10;;;;;;4952693;28;75173;-68
2021/03/07 02:32:59;;;;;;;;;;;11.70;60.20;;;;;;4953065;28;75061;-67
2021/03/07 02:35:26;;;;;;;;;;;11.70;60.10;;;;;;4952744;28;74966;-67
2021/03/07 02:37:54;;;;;;;;;;;11.70;59.70;;;;;;4951389;28;78047;-68
2021/03/07 02:40:22;;;;;;;;;;;11.80;59.60;;;;;;4951589;28;78001;-63
2021/03/07 02:42:49;;;;;;;;;;;11.80;59.60;;;;;;4951414;28;76278;-67
2021/03/07 02:45:16;;;;;;;;;;;11.80;59.40;;;;;;4951257;28;75742;-65
2021/03/07 02:47:44;;;;;;;;;;;11.80;59.30;;;;;;4952409;28;75146;-63
2021/03/07 02:50:12;;;;;;;;;;;11.80;59.30;;;;;;4952433;28;75182;-68
2021/03/07 02:52:38;;;;;;;;;;;11.80;59.40;;;;;;4952239;28;75251;-70
2021/03/07 02:55:05;;;;;;;;;;;11.90;59.30;;;;;;4952327;28;75198;-70
2021/03/07 02:57:31;;;;;;;;;;;11.80;59.30;;;;;;4952540;28;75141;-65
2021/03/07 02:59:58;;;;;;;;;;;11.90;59.20;;;;;;4952419;28;74789;-70
2021/03/07 03:02:24;;;;;;;;;;;11.90;59.30;;;;;;4952285;28;75111;-69
2021/03/07 03:04:50;;;;;;;;;;;11.90;59.20;;;;;;4952448;28;75099;-69
2021/03/07 03:07:16;;;;;;;;;;;11.90;59.10;;;;;;4952587;28;74987;-69
2021/03/07 03:09:42;;;;;;;;;;;11.90;59.00;;;;;;4952234;28;76270;-70
2021/03/07 03:12:09;;;;;;;;;;;11.90;58.90;;;;;;4952694;28;75401;-66
2021/03/07 03:14:34;;;;;;;;;;;11.90;58.90;;;;;;4952687;28;75172;-67
2021/03/07 03:17:01;;;;;;;;;;;11.90;58.90;;;;;;4952344;28;75014;-68
2021/03/07 03:19:28;;;;;;;;;;;11.90;59.00;;;;;;4952283;28;75135;-68
2021/03/07 03:21:54;;;;;;;;;;;11.80;59.00;;;;;;4950817;28;77564;-68
2021/03/07 03:24:20;;;;;;;;;;;11.80;59.00;;;;;;4952523;28;74470;-65
2021/03/07 03:26:46;;;;;;;;;;;11.80;59.00;;;;;;4952052;28;74985;-63
2021/03/07 03:29:11;;;;;;;;;;;11.80;59.10;;;;;;4951963;28;75006;-65
2021/03/07 03:31:37;;;;;;;;;;;11.70;59.20;;;;;;4951605;28;74936;-68
2021/03/07 03:34:05;;;;;;;;;;;11.70;59.30;;;;;;4952086;28;74937;-69
2021/03/07 03:36:31;;;;;;;;;;;11.60;59.30;;;;;;4951863;28;75298;-70
2021/03/07 03:39:00;;;;;;;;;;;11.60;59.50;;;;;;4952024;28;75147;-66
2021/03/07 03:41:29;;;;;;;;;;;11.50;59.70;;;;;;4951930;28;75562;-62
2021/03/07 03:43:56;;;;;;;;;;;11.50;59.80;;;;;;4951446;28;76468;-70
2021/03/07 03:46:23;;;;;;;;;;;11.50;59.80;;;;;;4951841;28;74981;-67
2021/03/07 03:48:51;;;;;;;;;;;11.40;60.00;;;;;;4950471;28;76647;-65
2021/03/07 03:51:18;;;;;;;;;;;11.40;60.10;;;;;;4951796;28;75118;-71
2021/03/07 03:53:44;;;;;;;;;;;11.40;60.00;;;;;;4951377;28;75944;-71
2021/03/07 03:56:11;;;;;;;;;;;11.50;60.00;;;;;;4951751;28;75433;-69
2021/03/07 03:58:38;;;;;;;;;;;11.50;59.90;;;;;;4951657;28;75181;-66
2021/03/07 04:01:05;;;;;;;;;;;11.50;59.80;;;;;;4951366;28;76675;-65
2021/03/07 04:03:31;;;;;;;;;;;11.60;59.90;;;;;;4951799;28;75292;-68
2021/03/07 04:05:57;;;;;;;;;;;11.50;59.80;;;;;;4950027;28;78135;-65
2021/03/07 04:08:22;;;;;;;;;;;11.50;59.80;;;;;;4951573;28;75083;-64
2021/03/07 04:10:49;;;;;;;;;;;11.60;59.80;;;;;;4950386;28;75401;-68
2021/03/07 04:13:17;;;;;;;;;;;11.60;59.70;;;;;;4951680;28;75293;-68
2021/03/07 04:15:43;;;;;;;;;;;11.70;59.60;;;;;;4951510;28;76154;-68
2021/03/07 04:18:09;;;;;;;;;;;11.70;59.40;;;;;;4951738;28;76892;-68
2021/03/07 04:20:35;;;;;;;;;;;11.70;59.50;;;;;;4951753;28;75672;-66
2021/03/07 04:23:01;;;;;;;;;;;11.70;59.40;;;;;;4950060;28;74870;-68
2021/03/07 04:25:26;;;;;;;;;;;11.70;59.30;;;;;;4951478;28;75020;-68
2021/03/07 04:27:52;;;;;;;;;;;11.70;59.30;;;;;;4950673;28;75317;-67
2021/03/07 04:30:18;;;;;;;;;;;11.70;59.40;;;;;;4951151;28;75284;-69
2021/03/07 04:32:44;;;;;;;;;;;11.70;59.40;;;;;;4951130;28;75760;-67
2021/03/07 04:35:10;;;;;;;;;;;11.70;59.30;;;;;;4951386;28;74372;-66
2021/03/07 04:37:36;;;;;;;;;;;11.70;59.50;;;;;;4949883;28;77599;-67
2021/03/07 04:40:02;;;;;;;;;;;11.70;59.50;;;;;;4951163;28;75262;-67
2021/03/07 04:42:28;;;;;;;;;;;11.70;59.40;;;;;;4951138;28;75196;-63
2021/03/07 04:44:53;;;;;;;;;;;11.70;59.40;;;;;;4950763;28;74379;-65
2021/03/07 04:47:19;;;;;;;;;;;11.70;59.40;;;;;;4950835;28;74386;-63
2021/03/07 04:49:45;;;;;;;;;;;11.70;59.30;;;;;;4949506;28;77805;-65
2021/03/07 04:52:10;;;;;;;;;;;11.70;59.40;;;;;;4950523;28;76248;-68
2021/03/07 04:54:36;;;;;;;;;;;11.80;59.20;;;;;;4950500;28;76041;-66
2021/03/07 04:57:02;;;;;;;;;;;11.70;59.20;;;;;;4951230;28;74674;-63
2021/03/07 04:59:28;;;;;;;;;;;11.80;59.10;;;;;;4951046;28;74981;-63
2021/03/07 05:01:55;;;;;;;;;;;11.80;59.00;;;;;;4950245;28;76358;-67
2021/03/07 05:04:20;;;;;;;;;;;11.80;59.10;;;;;;4950865;28;75399;-64
2021/03/07 05:06:46;;;;;;;;;;;11.80;59.30;;;;;;4950965;28;75238;-63
2021/03/07 05:09:11;;;;;;;;;;;11.80;59.20;;;;;;4951160;28;74454;-65
2021/03/07 05:11:37;;;;;;;;;;;11.80;59.20;;;;;;4950481;28;76106;-67
2021/03/07 05:14:03;;;;;;;;;;;11.80;59.30;;;;;;4950777;28;75198;-62
2021/03/07 05:16:29;;;;;;;;;;;11.90;59.20;;;;;;4951051;28;74477;-64
2021/03/07 05:18:55;;;;;;;;;;;11.90;59.20;;;;;;4950337;28;75259;-64
2021/03/07 05:21:21;;;;;;;;;;;11.90;59.20;;;;;;4950743;28;74599;-64
2021/03/07 05:23:46;;;;;;;;;;;11.90;59.10;;;;;;4950600;28;74379;-66
2021/03/07 05:26:12;;;;;;;;;;;11.90;59.10;;;;;;4950806;28;75115;-68
2021/03/07 05:28:38;;;;;;;;;;;11.90;59.10;;;;;;4950613;28;75020;-68
2021/03/07 05:31:03;;;;;;;;;;;11.90;59.10;;;;;;4950292;28;75174;-63
2021/03/07 05:33:29;;;;;;;;;;;11.90;59.10;;;;;;4950961;28;74439;-67
2021/03/07 05:35:55;;;;;;;;;;;11.90;59.20;;;;;;4950540;28;74475;-67
2021/03/07 05:38:21;;;;;;;;;;;11.80;59.20;;;;;;4950512;28;76624;-63
2021/03/07 05:40:46;;;;;;;;;;;11.80;59.30;;;;;;4950235;28;75259;-69
2021/03/07 05:43:12;;;;;;;;;;;11.80;59.20;;;;;;4950373;28;75072;-69
2021/03/07 05:45:38;;;;;;;;;;;11.70;59.30;;;;;;4950827;28;74613;-70
2021/03/07 05:48:03;;;;;;;;;;;11.60;59.40;;;;;;4948525;28;76772;-68
2021/03/07 05:50:29;;;;;;;;;;;11.60;59.60;;;;;;4950246;28;76143;-69
2021/03/07 05:52:56;;;;;;;;;;;11.60;59.80;;;;;;4948497;28;78671;-69
2021/03/07 05:55:23;;;;;;;;;;;11.50;59.90;;;;;;4948801;28;75980;-68
2021/03/07 05:57:49;;;;;;;;;;;11.60;60.00;;;;;;4952619;28;74411;-69
2021/03/07 06:00:16;;;;;;;;;;;11.50;60.00;;;;;;4951748;28;76880;-69
2021/03/07 06:02:42;;;;;;;;;;;11.50;60.00;;;;;;4952578;28;76821;-70
2021/03/07 06:05:09;;;;;;;;;;;11.50;60.10;;;;;;4952405;28;76489;-69
2021/03/07 06:07:34;;;;;;;;;;;11.50;60.10;;;;;;4952842;28;75010;-69
2021/03/07 06:10:13;;;;;;;;;;;11.50;60.10;;;;;;4952660;28;75157;-69
2021/03/07 06:12:39;;;;;;;;;;;11.40;60.20;;;;;;4953382;28;74445;-69
2021/03/07 06:15:05;;;;;;;;;;;11.40;60.40;;;;;;4951550;28;77836;-68
2021/03/07 06:17:44;;;;;;;;;;;11.40;60.50;;;;;;4954076;28;75562;-70
2021/03/07 06:20:13;;;;;;;;;;;11.40;60.70;;;;;;4952792;28;75389;-68
2021/03/07 06:22:40;;;;;;;;;;;11.40;60.80;;;;;;4952360;28;76553;-68
2021/03/07 06:25:12;;;;;;;;;;;11.40;60.70;;;;;;4951206;28;77955;-67
2021/03/07 06:27:38;;;;;;;;;;;11.40;60.70;;;;;;4952478;28;75285;-69
2021/03/07 06:30:11;;;;;;;;;;;11.40;60.60;;;;;;4952542;28;75581;-69
2021/03/07 06:32:41;;;;;;;;;;;11.40;60.70;;;;;;4952382;28;75122;-70
2021/03/07 06:35:08;;;;;;;;;;;11.50;60.50;;;;;;4952951;28;75349;-69
2021/03/07 06:37:33;;;;;;;;;;;11.50;60.50;;;;;;4951425;28;78829;-69
2021/03/07 06:39:59;;;;;;;;;;;11.50;60.50;;;;;;4952617;28;74647;-67
2021/03/07 06:42:25;;;;;;;;;;;11.60;60.40;;;;;;4952584;28;76327;-67
2021/03/07 06:44:55;;;;;;;;;;;11.60;60.20;;;;;;4952564;28;75146;-68
2021/03/07 06:47:20;;;;;;;;;;;11.60;60.40;;;;;;4953142;28;74470;-66
2021/03/07 06:49:46;;;;;;;;;;;11.60;60.20;;;;;;4952250;28;75501;-67
2021/03/07 06:52:13;;;;;;;;;;;11.70;60.20;;;;;;4952328;28;75267;-65
2021/03/07 06:54:39;;;;;;;;;;;11.70;60.10;;;;;;4952535;28;74966;-66
2021/03/07 06:57:05;;;;;;;;;;;11.70;60.20;;;;;;4950963;28;76920;-63
2021/03/07 06:59:30;;;;;;;;;;;11.70;60.10;;;;;;4950963;28;75573;-66
2021/03/07 07:01:57;;;;;;;;;;;11.70;60.10;;;;;;4952432;28;75454;-67
2021/03/07 07:04:23;;;;;;;;;;;11.70;60.00;;;;;;4952566;28;75066;-70
2021/03/07 07:07:05;;;;;;;;;;;11.80;60.10;;;;;;4950647;28;76321;-68
2021/03/07 07:09:32;;;;;;;;;;;11.80;60.00;;;;;;4952082;28;76278;-67
2021/03/07 07:11:58;;;;;;;;;;;11.80;59.80;;;;;;4952189;28;75338;-68
2021/03/07 07:14:29;;;;;;;;;;;11.80;59.70;;;;;;4950617;28;77970;-64
2021/03/07 07:16:55;;;;;;;;;;;11.80;59.70;;;;;;4952186;28;75755;-67
2021/03/07 07:19:20;;;;;;;;;;;11.80;59.60;;;;;;4951954;28;74382;-67
2021/03/07 07:21:47;;;;;;;;;;;11.80;59.50;;;;;;4951012;28;76470;-69
2021/03/07 07:24:13;;;;;;;;;;;11.80;59.40;;;;;;4950461;28;78183;-66
2021/03/07 07:26:38;;;;;;;;;;;11.90;59.50;;;;;;4952617;28;74451;-67
2021/03/07 07:29:04;;;;;;;;;;;11.80;59.40;;;;;;4950520;28;78385;-68
2021/03/07 07:31:29;;;;;;;;;;;11.90;59.50;;;;;;4951916;28;75083;-64
2021/03/07 07:33:57;;;;;;;;;;;11.90;59.60;;;;;;4952431;28;75028;-66
2021/03/07 07:36:22;;;;;;;;;;;11.90;59.80;;;;;;4951810;28;75137;-65
2021/03/07 07:38:49;;;;;;;;;;;11.90;60.00;;;;;;4952228;28;75136;-71
2021/03/07 07:41:32;;;;;;;;;;;11.90;60.10;;;;;;4951965;28;74777;-65
2021/03/07 07:43:58;;;;;;;;;;;11.80;60.60;;;;;;4951843;28;75226;-65
2021/03/07 07:46:24;;;;;;;;;;;11.70;60.90;;;;;;4950328;28;77462;-65
2021/03/07 07:48:50;;;;;;;;;;;11.70;61.00;;;;;;4951582;28;75143;-68
2021/03/07 07:51:32;;;;;;;;;;;11.70;61.00;;;;;;4950435;28;75990;-68
2021/03/07 07:53:58;;;;;;;;;;;11.80;61.00;;;;;;4951632;28;75262;-65
2021/03/07 07:56:34;;;;;;;;;;;11.90;60.70;;;;;;4952005;28;75280;-66
2021/03/07 07:58:59;;;;;;;;;;;12.00;60.40;;;;;;4951926;28;75295;-67
2021/03/07 08:01:43;;;;;;;;;;;12.10;60.10;;;;;;4951657;28;75669;-70
2021/03/07 08:04:41;;;;;;;;;;;12.10;59.90;;;;;;4950332;28;75405;-66
2021/03/07 08:07:07;;;;;;;;;;;12.30;59.50;;;;;;4949542;28;76676;-70
2021/03/07 08:09:41;;;;;;;;;;;12.40;59.10;;;;;;4950321;28;77177;-70
2021/03/07 08:12:36;;;;;;;;;;;12.70;58.50;;;;;;4951776;28;75232;-68
2021/03/07 08:15:01;;;;;;;;;;;12.80;57.90;;;;;;4954522;28;75181;-70
2021/03/07 08:17:45;;;;;;;;;;;13.00;57.40;;;;;;4951722;28;75719;-63
2021/03/07 08:20:11;;;;;;;;;;;13.20;57.00;;;;;;4950360;28;74987;-68
2021/03/07 08:23:00;;;;;;;;;;;13.30;56.60;;;;;;4950424;28;75515;-66
2021/03/07 08:25:45;;;;;;;;;;;13.40;56.00;;;;;;4953746;28;75135;-68
2021/03/07 08:28:23;;;;;;;;;;;13.50;55.70;;;;;;4951187;28;75099;-66
2021/03/07 08:30:49;;;;;;;;;;;13.50;55.40;;;;;;4950221;28;75531;-68
2021/03/07 08:33:21;;;;;;;;;;;13.60;55.40;;;;;;4949992;28;78254;-70
2021/03/07 08:36:07;;;;;;;;;;;13.60;55.10;;;;;;4951482;28;75064;-70
2021/03/07 08:38:32;;;;;;;;;;;13.70;55.20;;;;;;4950747;28;75436;-69
2021/03/07 08:40:58;;;;;;;;;;;13.80;54.90;;;;;;4949728;28;77687;-71
2021/03/07 08:43:23;;;;;;;;;;;13.90;54.80;;;;;;4951423;28;76394;-67
2021/03/07 08:46:05;;;;;;;;;;;13.90;54.40;;;;;;4951519;28;75400;-70
2021/03/07 08:48:32;;;;;;;;;;;14.00;54.20;;;;;;4949800;28;77473;-67
2021/03/07 08:50:58;;;;;;;;;;;13.90;54.20;;;;;;4950955;28;75263;-69
2021/03/07 08:53:25;;;;;;;;;;;13.90;54.10;;;;;;4949291;28;77203;-69
2021/03/07 08:55:51;;;;;;;;;;;13.90;54.30;;;;;;4949744;28;78180;-68
2021/03/07 08:58:17;;;;;;;;;;;14.00;53.90;;;;;;4949720;28;76670;-70
2021/03/07 09:00:47;;;;;;;;;;;14.00;54.40;;;;;;4951302;28;74471;-68
2021/03/07 09:03:13;;;;;;;;;;;14.10;54.30;;;;;;4951082;28;75164;-66
2021/03/07 09:05:39;;;;;;;;;;;14.20;53.90;;;;;;4951142;28;75713;-66
2021/03/07 09:08:07;;;;;;;;;;;14.20;53.50;;;;;;4949238;28;95907;-68
2021/03/07 09:10:40;;;;;;;;;;;14.30;53.60;;;;;;4949447;28;76657;-70
2021/03/07 09:13:06;;;;;;;;;;;14.40;53.30;;;;;;4949590;28;75395;-70
2021/03/07 09:15:32;;;;;;;;;;;14.50;53.00;;;;;;4951034;28;75098;-71
2021/03/07 09:17:58;;;;;;;;;;;14.60;52.70;;;;;;4949487;28;78413;-71
2021/03/07 09:20:38;;;;;;;;;;;14.70;52.70;;;;;;4949887;28;75613;-70
2021/03/07 09:23:04;;;;;;;;;;;14.80;52.40;;;;;;4951875;28;74480;-68
2021/03/07 09:25:29;;;;;;;;;;;14.90;52.30;;;;;;4951136;28;75125;-70
2021/03/07 09:27:55;;;;;;;;;;;15.00;51.80;;;;;;4951010;28;75169;-71
2021/03/07 09:30:21;;;;;;;;;;;15.00;51.70;;;;;;4948839;28;76235;-72
2021/03/07 09:32:48;;;;;;;;;;;15.10;51.80;;;;;;4951437;28;74339;-72
2021/03/07 09:35:24;;;;;;;;;;;15.30;51.60;;;;;;4949437;28;78517;-69
2021/03/07 09:38:07;;;;;;;;;;;15.40;51.10;;;;;;4949293;28;77457;-65
2021/03/07 09:40:36;;;;;;;;;;;15.50;50.70;;;;;;4949137;28;76396;-68
2021/03/07 09:43:05;;;;;;;;;;;15.60;50.40;;;;;;4948773;28;76726;-69
2021/03/07 09:45:32;;;;;;;;;;;15.70;50.10;;;;;;4949689;28;75474;-66
2021/03/07 09:47:57;;;;;;;;;;;15.60;49.60;;;;;;4950695;28;75971;-69
2021/03/07 09:50:23;;;;;;;;;;;15.70;50.00;;;;;;4950398;28;75176;-68
2021/03/07 09:52:49;;;;;;;;;;;15.80;49.70;;;;;;4948996;28;76675;-69
2021/03/07 09:55:25;;;;;;;;;;;15.90;49.60;;;;;;4949595;28;75427;-70
2021/03/07 09:58:04;;;;;;;;;;;16.00;49.20;;;;;;4950660;28;75210;-68
2021/03/07 10:00:29;;;;;;;;;;;16.00;48.90;;;;;;4948935;28;77957;-69
2021/03/07 10:02:55;;;;;;;;;;;16.00;49.00;;;;;;4949524;28;77464;-69
2021/03/07 10:05:21;;;;;;;;;;;15.90;48.90;;;;;;4950228;28;75103;-68
2021/03/07 10:07:46;;;;;;;;;;;15.90;49.00;;;;;;4950361;28;75474;-67
2021/03/07 10:10:13;;;;;;;;;;;15.90;49.10;;;;;;4948640;28;77267;-70
2021/03/07 10:12:39;;;;;;;;;;;15.80;49.20;;;;;;4950149;28;75662;-69
2021/03/07 10:15:05;;;;;;;;;;;15.80;49.30;;;;;;4950242;28;75134;-70
2021/03/07 10:17:38;;;;;;;;;;;15.90;49.20;;;;;;4948688;28;75811;-67
2021/03/07 10:20:04;;;;;;;;;;;15.90;49.40;;;;;;4950505;28;74495;-71
2021/03/07 10:22:43;;;;;;;;;;;16.10;49.10;;;;;;4948211;28;76770;-70
2021/03/07 10:25:22;;;;;;;;;;;16.50;48.70;;;;;;4949029;28;77979;-70
2021/03/07 10:27:52;;;;;;;;;;;16.80;47.90;;;;;;4948675;28;77247;-69
2021/03/07 10:30:26;;;;;;;;;;;17.10;46.90;;;;;;4948661;28;76053;-69
2021/03/07 10:33:05;;;;;;;;;;;17.30;46.60;;;;;;4949875;28;75421;-70
2021/03/07 10:35:30;;;;;;;;;;;17.50;45.90;;;;;;4948361;28;78437;-67
2021/03/07 10:37:56;;;;;;;;;;;17.60;45.30;;;;;;4950594;28;75596;-70
2021/03/07 10:40:29;;;;;;;;;;;17.40;45.50;;;;;;4949523;28;75301;-67
2021/03/07 10:42:59;;;;;;;;;;;17.50;45.70;;;;;;4951180;28;74581;-66
2021/03/07 10:45:25;;;;;;;;;;;17.70;45.30;;;;;;4951019;28;78042;-68
2021/03/07 10:48:17;;;;;;;;;;;17.90;45.00;;;;;;4953225;28;74380;-68
2021/03/07 10:50:44;;;;;;;;;;;17.90;44.90;;;;;;4952528;28;74974;-70
2021/03/07 10:53:10;;;;;;;;;;;18.00;45.10;;;;;;4950313;28;77823;-69
2021/03/07 10:55:36;;;;;;;;;;;18.20;44.90;;;;;;4952458;28;75213;-69
2021/03/07 10:58:01;;;;;;;;;;;18.30;44.50;;;;;;4952856;28;74728;-70
2021/03/07 11:00:27;;;;;;;;;;;18.30;44.60;;;;;;4952879;28;74553;-69
2021/03/07 11:02:53;;;;;;;;;;;18.40;44.30;;;;;;4951449;28;77137;-67
2021/03/07 11:05:19;;;;;;;;;;;18.40;44.00;;;;;;4951132;28;76477;-65
2021/03/07 11:07:45;;;;;;;;;;;18.40;44.40;;;;;;4952728;28;74448;-70
2021/03/07 11:10:12;;;;;;;;;;;18.60;44.30;;;;;;4952323;28;75159;-67
2021/03/07 11:12:38;;;;;;;;;;;19.30;43.60;;;;;;4952463;28;75800;-65
2021/03/07 11:15:04;;;;;;;;;;;20.20;41.90;;;;;;4950483;28;77821;-66
2021/03/07 11:17:29;;;;;;;;;;;21.10;40.30;;;;;;4952551;28;75108;-65
2021/03/07 11:19:55;;;;;;;;;;;21.40;39.20;;;;;;4950882;28;78147;-68
2021/03/07 11:22:21;;;;;;;;;;;21.40;39.00;;;;;;4952679;28;74543;-69
2021/03/07 11:24:47;;;;;;;;;;;21.10;39.50;;;;;;4952578;28;74899;-69
2021/03/07 11:27:13;;;;;;;;;;;21.80;39.30;;;;;;4952270;28;75108;-70
2021/03/07 11:29:38;;;;;;;;;;;23.90;36.30;;;;;;4951005;28;77483;-69
2021/03/07 11:32:04;;;;;;;;;;;25.10;34.00;;;;;;4952383;28;74525;-66
2021/03/07 11:34:30;;;;;;;;;;;26.00;32.50;;;;;;4950667;28;75586;-66
2021/03/07 11:36:56;;;;;;;;;;;26.50;32.30;;;;;;4952359;28;75364;-70
2021/03/07 11:39:21;;;;;;;;;;;26.90;30.40;;;;;;4950596;28;76023;-69
2021/03/07 11:41:47;;;;;;;;;;;25.60;32.60;;;;;;4952072;28;75135;-68
2021/03/07 11:44:12;;;;;;;;;;;24.70;33.70;;;;;;4951768;28;75119;-68
2021/03/07 11:46:38;;;;;;;;;;;25.20;33.50;;;;;;4952139;28;75223;-70
2021/03/07 11:49:04;;;;;;;;;;;25.60;32.70;;;;;;4951863;28;75150;-70
2021/03/07 11:51:29;;;;;;;;;;;24.70;32.50;;;;;;4950932;28;78022;-68
2021/03/07 11:53:55;;;;;;;;;;;24.30;34.20;;;;;;4950781;28;75152;-70
2021/03/07 11:56:20;;;;;;;;;;;24.50;33.70;;;;;;4950449;28;77298;-67
2021/03/07 11:58:46;;;;;;;;;;;26.50;32.20;;;;;;4951905;28;74442;-68
2021/03/07 12:01:12;;;;;;;;;;;27.50;30.20;;;;;;4951762;28;75131;-66
2021/03/07 12:03:37;;;;;;;;;;;26.10;31.20;;;;;;4950490;28;75250;-66
2021/03/07 12:06:03;;;;;;;;;;;27.00;31.30;;;;;;4950167;28;76560;-67
2021/03/07 12:08:28;;;;;;;;;;;28.20;28.80;;;;;;4951900;28;75462;-63
2021/03/07 12:10:54;;;;;;;;;;;29.40;28.40;;;;;;4951575;28;75657;-65
2021/03/07 12:13:20;;;;;;;;;;;30.90;27.00;;;;;;4951673;28;75047;-66
2021/03/07 12:15:45;;;;;;;;;;;31.30;25.40;;;;;;4951554;28;76350;-66
2021/03/07 12:18:11;;;;;;;;;;;30.90;26.30;;;;;;4951684;28;75158;-65
2021/03/07 12:20:36;;;;;;;;;;;30.70;27.00;;;;;;4950170;28;77069;-66
2021/03/07 12:23:02;;;;;;;;;;;31.00;26.30;;;;;;4951105;28;76401;-68
2021/03/07 12:25:28;;;;;;;;;;;31.70;25.80;;;;;;4951371;28;75477;-68
2021/03/07 12:27:53;;;;;;;;;;;32.30;25.20;;;;;;4950185;28;77883;-64
2021/03/07 12:30:19;;;;;;;;;;;31.00;25.70;;;;;;4951133;28;75436;-65
2021/03/07 12:32:45;;;;;;;;;;;31.70;26.30;;;;;;4941018;28;77287;-65
2021/03/07 12:35:10;;;;;;;;;;;31.50;25.00;;;;;;4930322;28;77193;-69
2021/03/07 12:37:36;;;;;;;;;;;31.20;26.80;;;;;;4930999;28;75627;-72
2021/03/07 12:40:03;;;;;;;;;;;32.20;25.50;;;;;;4931449;28;75055;-75
2021/03/07 12:42:28;;;;;;;;;;;32.80;25.30;;;;;;4931746;28;74693;-77
2021/03/07 12:44:57;;;;;;;;;;;32.40;24.80;;;;;;4931049;28;76477;-67
2021/03/07 12:47:23;;;;;;;;;;;31.50;25.20;;;;;;4930999;28;75904;-72
2021/03/07 12:49:48;;;;;;;;;;;31.50;26.10;;;;;;4930715;28;75386;-65
2021/03/07 12:52:14;;;;;;;;;;;32.10;25.50;;;;;;4930019;28;78119;-70
2021/03/07 12:54:39;;;;;;;;;;;32.50;25.00;;;;;;4930222;28;77193;-66
2021/03/07 12:57:05;;;;;;;;;;;32.40;25.30;;;;;;4932044;28;75092;-69
2021/03/07 12:59:31;;;;;;;;;;;31.90;25.60;;;;;;4929262;28;76885;-72
2021/03/07 13:01:56;;;;;;;;;;;31.60;26.20;;;;;;4930151;28;75011;-71
2021/03/07 13:04:22;;;;;;;;;;;32.30;25.90;;;;;;4930999;28;77608;-78
2021/03/07 13:06:48;;;;;;;;;;;32.30;25.60;;;;;;4930658;28;75525;-71
2021/03/07 13:09:13;;;;;;;;;;;32.30;26.60;;;;;;4932470;28;77000;-72
2021/03/07 13:11:39;;;;;;;;;;;32.80;25.50;;;;;;4930324;28;77374;-68
2021/03/07 13:14:04;;;;;;;;;;;32.90;25.00;;;;;;4930064;28;75414;-74
2021/03/07 13:16:30;;;;;;;;;;;32.30;26.10;;;;;;4931689;28;75042;-68
2021/03/07 13:18:56;;;;;;;;;;;31.50;26.40;;;;;;4931895;28;75269;-71
2021/03/07 13:21:23;;;;;;;;;;;32.50;26.20;;;;;;4931818;28;74467;-76
2021/03/07 13:23:48;;;;;;;;;;;31.90;26.20;;;;;;4931906;28;75441;-68
2021/03/07 13:26:15;;;;;;;;;;;30.00;27.30;;;;;;4931477;28;74918;-72
2021/03/07 13:28:41;;;;;;;;;;;28.50;28.80;;;;;;4931741;28;75213;-70
2021/03/07 13:31:06;;;;;;;;;;;27.40;30.20;;;;;;4931481;28;75130;-68
2021/03/07 13:33:32;;;;;;;;;;;26.60;31.20;;;;;;4931610;28;74430;-74
2021/03/07 13:35:57;;;;;;;;;;;26.60;31.50;;;;;;4931890;28;75417;-71
2021/03/07 13:38:23;;;;;;;;;;;27.30;31.10;;;;;;4931591;28;75607;-69
2021/03/07 13:40:48;;;;;;;;;;;27.60;30.40;;;;;;4930420;28;75690;-71
2021/03/07 13:43:17;;;;;;;;;;;27.80;30.00;;;;;;4930053;28;74740;-74
2021/03/07 13:45:43;;;;;;;;;;;27.40;29.70;;;;;;4931651;28;75228;-73
2021/03/07 13:48:08;;;;;;;;;;;26.30;30.40;;;;;;4929790;28;76569;-73
2021/03/07 13:50:35;;;;;;;;;;;25.50;31.80;;;;;;4931291;28;74981;-74
2021/03/07 13:53:01;;;;;;;;;;;24.90;32.80;;;;;;4931885;28;75181;-70
2021/03/07 13:55:27;;;;;;;;;;;24.50;33.20;;;;;;4930639;28;75579;-69
2021/03/07 13:57:53;;;;;;;;;;;24.40;33.10;;;;;;4930383;28;77474;-69
2021/03/07 14:00:19;;;;;;;;;;;25.40;33.10;;;;;;4930971;28;74491;-71
2021/03/07 14:02:45;;;;;;;;;;;26.40;31.00;;;;;;4929597;28;77768;-69
2021/03/07 14:05:11;;;;;;;;;;;26.00;28.80;;;;;;4931515;28;74567;-70
2021/03/07 14:07:37;;;;;;;;;;;25.00;31.30;;;;;;4931488;28;74671;-70
2021/03/07 14:10:04;;;;;;;;;;;25.40;31.30;;;;;;4929942;28;76526;-69
2021/03/07 14:12:30;;;;;;;;;;;25.40;31.00;;;;;;4929860;28;76653;-74
2021/03/07 14:14:56;;;;;;;;;;;26.20;30.60;;;;;;4930038;28;75698;-70
2021/03/07 14:17:22;;;;;;;;;;;26.50;29.80;;;;;;4929952;28;75088;-69